Time;durP1;ratioP1;P1;durP2;ratioP2;P2;SDS_P1;SDS_P2;PMS_P1;PMS_P2;Temp;Humidity;BMP_temperature;BMP_pressure;BME280_temperature;BME280_humidity;BME280_pressure;Samples;Min_cycle;Max_cycle;Signal;HPM_P1;HPM_P2
2024/01/07 00:00:21;;;;;;;39.53;21.33;;;2.70;99.90;;;;;;5027535;28;20037;-95
2024/01/07 00:02:47;;;;;;;42.77;24.57;;;2.70;99.90;;;;;;5011045;28;20032;-93
2024/01/07 00:05:14;;;;;;;43.20;24.47;;;2.70;99.90;;;;;;5011300;28;20389;-94
2024/01/07 00:07:40;;;;;;;43.43;23.47;;;2.70;99.90;;;;;;5027147;28;20034;-91
2024/01/07 00:10:06;;;;;;;44.07;23.13;;;2.70;99.90;;;;;;5026539;28;20028;-95
2024/01/07 00:12:31;;;;;;;40.67;22.57;;;2.70;99.90;;;;;;5027548;28;20029;-95
2024/01/07 00:14:57;;;;;;;47.20;24.10;;;2.70;99.90;;;;;;5010564;28;20048;-94
2024/01/07 00:17:23;;;;;;;46.97;24.73;;;2.60;99.90;;;;;;5027972;28;20026;-94
2024/01/07 00:19:49;;;;;;;41.43;23.40;;;2.70;99.90;;;;;;5027157;28;20022;-94
2024/01/07 00:22:15;;;;;;;44.30;23.03;;;2.60;99.90;;;;;;5044728;28;20029;-93
2024/01/07 00:24:41;;;;;;;45.57;23.23;;;2.60;99.90;;;;;;5026575;28;20038;-94
2024/01/07 00:27:08;;;;;;;41.80;24.23;;;2.60;99.90;;;;;;5026625;28;20175;-94
2024/01/07 00:29:35;;;;;;;45.77;24.10;;;2.60;99.90;;;;;;5011997;28;20026;-95
2024/01/07 00:32:01;;;;;;;45.60;23.67;;;2.60;99.90;;;;;;5044608;28;20072;-94
2024/01/07 00:34:27;;;;;;;42.33;24.20;;;2.70;99.90;;;;;;5027714;28;20120;-94
2024/01/07 00:36:53;;;;;;;45.77;23.73;;;2.60;99.90;;;;;;5010685;28;20026;-94
2024/01/07 00:39:18;;;;;;;46.57;23.60;;;2.70;99.90;;;;;;5029496;28;20044;-94
2024/01/07 00:41:44;;;;;;;47.87;25.00;;;2.70;99.90;;;;;;5028685;28;20021;-92
2024/01/07 00:44:10;;;;;;;49.53;25.47;;;2.60;99.90;;;;;;5044821;28;20501;-89
2024/01/07 00:46:35;;;;;;;57.23;27.87;;;2.70;99.90;;;;;;5027936;28;20033;-91
2024/01/07 00:49:01;;;;;;;57.13;28.47;;;2.60;99.90;;;;;;5026892;28;20047;-91
2024/01/07 00:51:27;;;;;;;59.63;28.83;;;2.60;99.90;;;;;;5011321;28;20021;-91
2024/01/07 00:53:52;;;;;;;53.40;27.30;;;2.70;99.90;;;;;;5027375;28;20029;-91
2024/01/07 00:56:18;;;;;;;56.67;28.23;;;2.60;99.90;;;;;;5027885;28;20024;-90
2024/01/07 00:58:43;;;;;;;59.10;27.87;;;2.70;99.90;;;;;;5028419;28;20059;-91
2024/01/07 01:01:09;;;;;;;58.67;27.43;;;2.70;99.90;;;;;;5029760;28;20083;-91
2024/01/07 01:03:35;;;;;;;60.60;29.23;;;2.70;99.90;;;;;;5027943;28;20075;-91
2024/01/07 01:06:02;;;;;;;58.33;28.67;;;2.70;99.90;;;;;;5026722;28;20041;-92
2024/01/07 01:08:28;;;;;;;56.80;27.87;;;2.70;99.90;;;;;;5046046;28;20017;-93
2024/01/07 01:10:53;;;;;;;59.13;28.53;;;2.70;99.90;;;;;;5027307;28;20072;-90
2024/01/07 01:13:19;;;;;;;54.47;26.80;;;2.70;99.90;;;;;;5027632;28;20042;-92
2024/01/07 01:15:45;;;;;;;63.17;28.47;;;2.70;99.90;;;;;;5027859;28;20025;-91
2024/01/07 01:18:10;;;;;;;55.40;27.83;;;2.70;99.90;;;;;;5030151;28;20025;-92
2024/01/07 01:20:36;;;;;;;56.43;27.83;;;2.80;99.90;;;;;;5030150;28;20044;-92
2024/01/07 01:23:02;;;;;;;55.53;27.57;;;2.70;99.90;;;;;;5030037;28;20092;-91
2024/01/07 01:25:29;;;;;;;55.10;27.53;;;2.70;99.90;;;;;;5031438;28;20065;-92
2024/01/07 01:27:55;;;;;;;46.50;24.43;;;2.70;99.90;;;;;;5031844;28;20384;-87
2024/01/07 01:30:22;;;;;;;56.83;28.50;;;2.70;99.90;;;;;;5047546;28;20096;-90
2024/01/07 01:32:47;;;;;;;44.67;25.10;;;2.70;99.90;;;;;;5029040;28;20053;-93
2024/01/07 01:35:13;;;;;;;48.67;26.20;;;2.80;99.90;;;;;;5035828;28;20025;-91
2024/01/07 01:37:38;;;;;;;44.07;24.57;;;2.80;99.90;;;;;;5029496;28;20080;-91
2024/01/07 01:40:04;;;;;;;49.43;25.33;;;2.70;99.90;;;;;;5029657;28;20037;-94
2024/01/07 01:42:30;;;;;;;49.17;26.03;;;2.70;99.90;;;;;;5047469;28;20040;-95
2024/01/07 01:44:59;;;;;;;46.17;25.20;;;2.80;99.90;;;;;;5029021;28;20026;-94
2024/01/07 01:47:25;;;;;;;48.40;27.23;;;2.70;99.90;;;;;;5029747;28;20032;-93
2024/01/07 01:49:51;;;;;;;44.37;24.37;;;2.70;99.90;;;;;;5028693;28;20041;-94
2024/01/07 01:52:17;;;;;;;43.20;24.57;;;2.70;99.90;;;;;;5029259;28;20037;-94
2024/01/07 01:54:42;;;;;;;45.67;24.80;;;2.80;99.90;;;;;;5029117;28;20116;-93
2024/01/07 01:57:16;;;;;;;48.67;26.57;;;2.80;99.90;;;;;;5028939;28;20099;-94
2024/01/07 01:59:43;;;;;;;43.92;24.85;;;2.80;99.90;;;;;;5029332;28;20045;-94
2024/01/07 02:02:09;;;;;;;41.17;24.00;;;2.70;99.90;;;;;;5028308;28;20056;-94
2024/01/07 02:04:34;;;;;;;48.87;26.20;;;2.70;99.90;;;;;;5029314;28;20025;-94
2024/01/07 02:07:00;;;;;;;42.97;24.83;;;2.80;99.90;;;;;;5028798;28;20072;-93
2024/01/07 02:09:26;;;;;;;49.40;25.23;;;2.70;99.90;;;;;;5029432;28;20048;-94
2024/01/07 02:12:05;;;;;;;47.83;26.93;;;2.80;99.90;;;;;;5029266;28;20064;-94
2024/01/07 02:14:30;;;;;;;44.37;25.33;;;2.70;99.90;;;;;;5029391;28;20020;-94
2024/01/07 02:16:56;;;;;;;47.20;24.83;;;2.70;99.90;;;;;;5028925;28;20029;-93
2024/01/07 02:19:22;;;;;;;39.53;22.93;;;2.70;99.90;;;;;;5028131;28;20041;-92
2024/01/07 02:21:50;;;;;;;49.43;25.93;;;2.70;99.90;;;;;;5029753;28;20111;-94
2024/01/07 02:24:16;;;;;;;45.33;25.73;;;2.70;99.90;;;;;;5029185;28;20041;-93
2024/01/07 02:26:42;;;;;;;49.20;25.37;;;2.70;99.90;;;;;;5030886;28;20064;-94
2024/01/07 02:29:08;;;;;;;50.27;24.57;;;2.70;99.90;;;;;;5032789;28;20025;-93
2024/01/07 02:31:33;;;;;;;54.93;27.00;;;2.70;99.90;;;;;;5032420;28;20025;-93
2024/01/07 02:33:59;;;;;;;48.37;25.47;;;2.70;99.90;;;;;;5033012;28;20048;-92
2024/01/07 02:36:25;;;;;;;47.57;26.50;;;2.70;99.90;;;;;;5034044;28;20089;-92
2024/01/07 02:38:50;;;;;;;53.77;25.37;;;2.70;99.90;;;;;;5034122;28;20017;-91
2024/01/07 02:41:16;;;;;;;58.33;27.67;;;2.70;99.90;;;;;;5033035;28;20021;-92
2024/01/07 02:43:42;;;;;;;56.27;28.00;;;2.70;99.90;;;;;;5032569;28;20029;-90
2024/01/07 02:46:08;;;;;;;55.30;27.10;;;2.70;99.90;;;;;;5032713;28;20021;-91
2024/01/07 02:48:34;;;;;;;51.50;26.80;;;2.70;99.90;;;;;;5032635;28;20024;-92
2024/01/07 02:51:03;;;;;;;44.37;24.90;;;2.70;99.90;;;;;;5032004;28;20025;-90
2024/01/07 02:53:28;;;;;;;49.20;26.13;;;2.60;99.90;;;;;;5031487;28;20635;-92
2024/01/07 02:55:54;;;;;;;49.77;26.20;;;2.60;99.90;;;;;;5032075;28;20030;-91
2024/01/07 02:58:20;;;;;;;47.60;24.43;;;2.60;99.90;;;;;;5030006;28;20026;-93
2024/01/07 03:00:45;;;;;;;52.00;25.97;;;2.60;99.90;;;;;;5030627;28;20026;-92
2024/01/07 03:03:11;;;;;;;48.40;24.73;;;2.60;99.90;;;;;;5030695;28;20025;-93
2024/01/07 03:05:37;;;;;;;49.23;27.07;;;2.60;99.90;;;;;;5030744;28;20123;-93
2024/01/07 03:08:03;;;;;;;47.30;26.13;;;2.60;99.90;;;;;;5029607;28;20030;-92
2024/01/07 03:10:28;;;;;;;53.57;27.10;;;2.60;99.90;;;;;;5027892;28;20021;-94
2024/01/07 03:12:54;;;;;;;48.63;26.03;;;2.60;99.90;;;;;;5045630;28;20044;-93
2024/01/07 03:15:20;;;;;;;46.87;24.87;;;2.50;99.90;;;;;;5027078;28;20025;-92
2024/01/07 03:17:46;;;;;;;47.73;24.13;;;2.60;99.90;;;;;;5027991;28;20028;-93
2024/01/07 03:20:12;;;;;;;49.70;23.37;;;2.60;99.90;;;;;;5027655;28;20045;-92
2024/01/07 03:22:37;;;;;;;43.40;23.17;;;2.50;99.90;;;;;;5027560;28;20093;-93
2024/01/07 03:25:03;;;;;;;39.80;22.10;;;2.50;99.90;;;;;;5027410;28;20052;-92
2024/01/07 03:27:29;;;;;;;43.40;21.87;;;2.50;99.90;;;;;;5027673;28;20021;-93
2024/01/07 03:29:55;;;;;;;40.20;21.33;;;2.50;99.90;;;;;;5027534;28;20394;-92
2024/01/07 03:32:20;;;;;;;37.80;20.50;;;2.50;99.90;;;;;;5044468;28;20095;-92
2024/01/07 03:34:46;;;;;;;38.47;20.63;;;2.50;99.90;;;;;;5027674;28;20045;-92
2024/01/07 03:37:12;;;;;;;38.13;20.83;;;2.50;99.90;;;;;;5027200;28;20017;-92
2024/01/07 03:39:37;;;;;;;34.30;20.63;;;2.50;99.90;;;;;;5027483;28;20018;-92
2024/01/07 03:42:03;;;;;;;34.23;18.83;;;2.50;99.90;;;;;;5026717;28;20052;-93
2024/01/07 03:44:29;;;;;;;35.47;19.30;;;2.50;99.90;;;;;;5027015;28;20009;-93
2024/01/07 03:46:54;;;;;;;34.60;19.27;;;2.50;99.90;;;;;;5019082;28;20029;-92
2024/01/07 03:49:20;;;;;;;32.47;17.87;;;2.50;99.90;;;;;;5009957;28;20403;-91
2024/01/07 03:51:46;;;;;;;32.60;17.67;;;2.50;99.90;;;;;;5028286;28;20013;-93
2024/01/07 03:54:11;;;;;;;32.23;17.47;;;2.50;99.90;;;;;;5026765;28;20033;-92
2024/01/07 03:56:37;;;;;;;30.23;19.10;;;2.60;99.90;;;;;;5026709;28;20021;-91
2024/01/07 03:59:03;;;;;;;27.77;16.80;;;2.50;99.90;;;;;;5026582;28;20014;-91
2024/01/07 04:01:28;;;;;;;31.00;17.43;;;2.50;99.90;;;;;;5026321;28;20481;-91
2024/01/07 04:03:54;;;;;;;31.17;18.23;;;2.50;99.90;;;;;;5026692;28;20026;-92
2024/01/07 04:06:20;;;;;;;31.57;18.30;;;2.50;99.90;;;;;;5026305;28;20044;-92
2024/01/07 04:08:46;;;;;;;29.27;18.33;;;2.50;99.90;;;;;;5027315;28;20025;-92
2024/01/07 04:11:11;;;;;;;28.60;16.73;;;2.50;99.90;;;;;;5026761;28;20113;-92
2024/01/07 04:13:37;;;;;;;31.57;17.80;;;2.50;99.90;;;;;;5026441;28;20033;-91
2024/01/07 04:16:03;;;;;;;28.30;16.83;;;2.50;99.90;;;;;;5026475;28;20366;-94
2024/01/07 04:18:29;;;;;;;34.80;19.40;;;2.50;99.90;;;;;;5027088;28;20025;-90
2024/01/07 04:20:55;;;;;;;31.00;18.83;;;2.50;99.90;;;;;;5027717;28;20056;-92
2024/01/07 04:23:20;;;;;;;32.17;19.40;;;2.40;99.90;;;;;;5027549;28;20017;-92
2024/01/07 04:25:46;;;;;;;27.83;17.30;;;2.40;99.90;;;;;;5027766;28;20021;-91
2024/01/07 04:28:12;;;;;;;35.00;19.70;;;2.40;99.90;;;;;;5027902;28;20021;-92
2024/01/07 04:30:37;;;;;;;35.00;20.77;;;2.40;99.90;;;;;;5027971;28;20064;-92
2024/01/07 04:33:03;;;;;;;32.50;19.17;;;2.40;99.90;;;;;;5027530;28;20529;-90
2024/01/07 04:35:29;;;;;;;30.97;18.50;;;2.40;99.90;;;;;;5029089;28;20035;-92
2024/01/07 04:37:54;;;;;;;34.33;20.57;;;2.30;99.90;;;;;;5028695;28;20062;-92
2024/01/07 04:40:20;;;;;;;35.17;20.80;;;2.40;99.90;;;;;;5029822;28;20017;-90
2024/01/07 04:42:46;;;;;;;32.50;20.90;;;2.40;99.90;;;;;;5028347;28;20508;-92
2024/01/07 04:45:11;;;;;;;36.07;21.70;;;2.40;99.90;;;;;;5029335;28;20081;-91
2024/01/07 04:47:37;;;;;;;31.73;20.13;;;2.30;99.90;;;;;;5030731;28;20017;-92
2024/01/07 04:50:04;;;;;;;34.03;19.87;;;2.30;99.90;;;;;;5030872;28;20076;-92
2024/01/07 04:52:29;;;;;;;38.53;21.07;;;2.30;99.90;;;;;;5031704;28;20037;-90
2024/01/07 04:54:56;;;;;;;36.23;21.67;;;2.30;99.90;;;;;;5030876;28;20072;-93
2024/01/07 04:57:22;;;;;;;31.87;19.93;;;2.40;99.90;;;;;;5030048;28;20022;-91
2024/01/07 04:59:49;;;;;;;32.93;20.83;;;2.30;99.90;;;;;;5027006;28;20018;-91
2024/01/07 05:02:15;;;;;;;36.50;20.87;;;2.30;99.90;;;;;;5043646;28;20021;-93
2024/01/07 05:04:42;;;;;;;34.97;19.27;;;2.30;99.90;;;;;;5026624;28;20043;-94
2024/01/07 05:07:07;;;;;;;33.67;20.70;;;2.30;99.90;;;;;;5025922;28;20093;-94
2024/01/07 05:09:33;;;;;;;32.27;20.93;;;2.30;99.90;;;;;;5025720;28;20026;-93
2024/01/07 05:12:00;;;;;;;34.30;21.83;;;2.30;99.90;;;;;;5025110;28;20018;-93
2024/01/07 05:14:25;;;;;;;32.90;19.70;;;2.30;99.90;;;;;;5025987;28;20018;-91
2024/01/07 05:16:52;;;;;;;32.13;18.67;;;2.20;99.90;;;;;;5025476;28;20052;-90
2024/01/07 05:19:18;;;;;;;31.87;20.00;;;2.20;99.90;;;;;;5025368;28;20482;-92
2024/01/07 05:21:44;;;;;;;29.40;20.03;;;2.30;99.90;;;;;;5043909;28;20022;-93
2024/01/07 05:24:10;;;;;;;34.07;20.70;;;2.30;99.90;;;;;;5025191;28;20112;-93
2024/01/07 05:26:44;;;;;;;31.80;19.10;;;2.30;99.90;;;;;;5025919;28;20044;-92
2024/01/07 05:29:11;;;;;;;32.67;20.03;;;2.30;99.90;;;;;;5025807;28;20021;-91
2024/01/07 05:31:37;;;;;;;32.60;20.57;;;2.20;99.90;;;;;;5025485;28;20096;-91
2024/01/07 05:34:03;;;;;;;31.47;19.50;;;2.20;99.90;;;;;;5043234;28;20022;-92
2024/01/07 05:36:29;;;;;;;33.07;20.80;;;2.20;99.90;;;;;;5025453;28;20024;-95
2024/01/07 05:38:56;;;;;;;28.20;18.43;;;2.20;99.90;;;;;;5025691;28;20021;-95
2024/01/07 05:41:22;;;;;;;30.60;18.60;;;2.20;99.90;;;;;;5026171;28;20025;-95
2024/01/07 05:43:47;;;;;;;35.20;17.90;;;2.20;99.90;;;;;;5025601;28;20055;-94
2024/01/07 05:46:13;;;;;;;29.40;19.07;;;2.20;99.90;;;;;;5009104;28;20365;-94
2024/01/07 05:48:47;;;;;;;28.07;18.27;;;2.20;99.90;;;;;;5042971;28;20022;-93
2024/01/07 05:51:14;;;;;;;28.87;16.80;;;2.20;99.90;;;;;;5025369;28;20477;-92
2024/01/07 05:53:40;;;;;;;33.27;19.87;;;2.20;99.90;;;;;;5043068;28;20064;-92
2024/01/07 05:56:06;;;;;;;30.67;19.33;;;2.20;99.90;;;;;;5009436;28;20029;-94
2024/01/07 05:58:32;;;;;;;28.33;19.30;;;2.20;99.90;;;;;;5025051;28;20029;-93
2024/01/07 06:00:58;;;;;;;26.63;17.27;;;2.20;99.90;;;;;;5033122;28;20093;-94
2024/01/07 06:03:24;;;;;;;27.10;17.47;;;2.20;99.90;;;;;;5044123;28;20010;-94
2024/01/07 06:05:49;;;;;;;28.70;17.43;;;2.20;99.90;;;;;;5045006;28;20031;-94
2024/01/07 06:08:15;;;;;;;28.47;18.17;;;2.20;99.90;;;;;;5041514;28;20056;-93
2024/01/07 06:10:41;;;;;;;28.80;17.03;;;2.20;99.90;;;;;;5041693;28;20032;-94
2024/01/07 06:13:07;;;;;;;28.70;17.50;;;2.20;99.90;;;;;;5045877;28;20516;-94
2024/01/07 06:15:33;;;;;;;28.27;18.00;;;2.30;99.90;;;;;;5045199;28;20029;-95
2024/01/07 06:17:59;;;;;;;30.97;17.60;;;2.20;99.90;;;;;;5046936;28;20084;-94
2024/01/07 06:20:25;;;;;;;27.83;17.03;;;2.20;99.90;;;;;;5045415;28;20469;-94
2024/01/07 06:22:51;;;;;;;29.50;17.13;;;2.30;99.90;;;;;;5045279;28;20128;-93
2024/01/07 06:25:16;;;;;;;26.53;17.50;;;2.20;99.90;;;;;;5044801;28;20091;-94
2024/01/07 06:27:42;;;;;;;27.03;17.33;;;2.20;99.90;;;;;;5046601;28;20033;-94
2024/01/07 06:30:09;;;;;;;29.13;18.83;;;2.20;99.90;;;;;;5045202;28;20017;-95
2024/01/07 06:32:35;;;;;;;27.73;17.63;;;2.20;99.90;;;;;;5038200;28;20036;-95
2024/01/07 06:35:03;;;;;;;31.60;17.60;;;2.20;99.90;;;;;;5033277;28;20013;-94
2024/01/07 06:37:29;;;;;;;27.13;16.10;;;2.30;99.90;;;;;;5048239;28;20040;-93
2024/01/07 06:39:56;;;;;;;25.80;15.80;;;2.20;99.90;;;;;;5065642;28;20082;-93
2024/01/07 06:42:22;;;;;;;24.80;16.67;;;2.20;99.90;;;;;;5048069;28;20040;-92
2024/01/07 06:44:47;;;;;;;28.90;17.50;;;2.20;99.90;;;;;;5048003;28;20028;-93
2024/01/07 06:47:13;;;;;;;25.50;16.50;;;2.20;99.90;;;;;;5047895;28;20029;-93
2024/01/07 06:49:40;;;;;;;27.10;16.63;;;2.20;99.90;;;;;;5065784;28;20088;-92
2024/01/07 06:52:06;;;;;;;24.47;16.57;;;2.20;99.90;;;;;;5047578;28;20028;-91
2024/01/07 06:54:33;;;;;;;25.70;16.53;;;2.20;99.90;;;;;;5047749;28;20033;-92
2024/01/07 06:56:58;;;;;;;26.57;17.33;;;2.20;99.90;;;;;;5065729;28;20029;-93
2024/01/07 06:59:24;;;;;;;27.97;17.00;;;2.20;99.90;;;;;;5047998;28;20021;-93
2024/01/07 07:01:50;;;;;;;28.90;16.47;;;2.20;99.90;;;;;;5048898;28;20081;-93
2024/01/07 07:04:16;;;;;;;27.83;16.27;;;2.20;99.90;;;;;;5048383;28;20480;-94
2024/01/07 07:06:41;;;;;;;25.00;15.73;;;2.20;99.90;;;;;;5048263;28;20025;-94
2024/01/07 07:09:07;;;;;;;26.83;17.07;;;2.20;99.90;;;;;;5048083;28;20021;-94
2024/01/07 07:11:33;;;;;;;25.63;16.37;;;2.20;99.90;;;;;;5047776;28;20045;-95
2024/01/07 07:13:58;;;;;;;27.00;16.93;;;2.10;99.90;;;;;;5047738;28;20040;-93
2024/01/07 07:16:25;;;;;;;24.10;15.70;;;2.10;99.90;;;;;;5047664;28;20036;-94
2024/01/07 07:18:51;;;;;;;25.37;15.00;;;2.10;99.90;;;;;;5047222;28;20017;-94
2024/01/07 07:21:17;;;;;;;27.40;16.57;;;2.10;99.90;;;;;;5047249;28;20021;-94
2024/01/07 07:23:42;;;;;;;27.00;17.13;;;2.10;99.90;;;;;;5046068;28;20083;-95
2024/01/07 07:26:09;;;;;;;28.30;17.23;;;2.10;99.90;;;;;;5047678;28;20047;-94
2024/01/07 07:28:35;;;;;;;23.97;16.57;;;2.10;99.90;;;;;;5047234;28;20021;-93
2024/01/07 07:31:00;;;;;;;26.10;15.90;;;2.10;99.90;;;;;;5047580;28;20112;-94
2024/01/07 07:33:26;;;;;;;24.60;16.40;;;2.10;99.90;;;;;;5047008;28;20033;-94
2024/01/07 07:35:52;;;;;;;27.93;16.10;;;2.10;99.90;;;;;;5047217;28;20107;-95
2024/01/07 07:38:17;;;;;;;24.03;15.37;;;2.10;99.90;;;;;;5046908;28;20028;-94
2024/01/07 07:40:45;;;;;;;25.90;15.53;;;2.10;99.90;;;;;;5047026;28;20024;-92
2024/01/07 07:43:10;;;;;;;25.63;17.03;;;2.10;99.90;;;;;;5047089;28;20029;-93
2024/01/07 07:45:36;;;;;;;26.00;15.10;;;2.10;99.90;;;;;;5047085;28;20120;-93
2024/01/07 07:48:02;;;;;;;24.73;15.93;;;2.20;99.90;;;;;;5046917;28;20016;-94
2024/01/07 07:50:27;;;;;;;25.50;14.90;;;2.10;99.90;;;;;;5050085;28;20021;-94
2024/01/07 07:52:53;;;;;;;24.40;15.70;;;2.10;99.90;;;;;;5046710;28;20029;-94
2024/01/07 07:55:19;;;;;;;22.73;14.53;;;2.10;99.90;;;;;;5047606;28;20084;-94
2024/01/07 07:57:46;;;;;;;22.17;14.50;;;2.10;99.90;;;;;;5046263;28;20506;-93
2024/01/07 08:00:12;;;;;;;25.37;15.53;;;2.10;99.90;;;;;;5046966;28;20076;-92
2024/01/07 08:02:39;;;;;;;32.70;14.93;;;2.10;99.90;;;;;;5046444;28;20060;-95
2024/01/07 08:05:07;;;;;;;20.90;13.90;;;2.10;99.90;;;;;;5046959;28;20021;-95
2024/01/07 08:07:32;;;;;;;21.37;13.47;;;2.10;99.90;;;;;;5046800;28;20021;-94
2024/01/07 08:09:58;;;;;;;21.80;13.60;;;2.10;99.90;;;;;;5064341;28;20028;-92
2024/01/07 08:12:24;;;;;;;19.47;12.30;;;2.10;99.90;;;;;;5046295;28;20029;-90
2024/01/07 08:14:49;;;;;;;19.97;12.93;;;2.10;99.90;;;;;;5046520;28;20017;-89
2024/01/07 08:17:16;;;;;;;20.63;14.03;;;2.10;99.90;;;;;;5049111;28;20021;-91
2024/01/07 08:19:42;;;;;;;20.93;14.10;;;2.10;99.90;;;;;;5032917;28;20032;-89
2024/01/07 08:22:09;;;;;;;20.07;13.37;;;2.10;99.90;;;;;;5047413;28;20029;-90
2024/01/07 08:24:35;;;;;;;20.10;12.57;;;2.00;99.90;;;;;;5048566;28;20075;-88
2024/01/07 08:27:02;;;;;;;19.60;13.50;;;2.10;99.90;;;;;;5044273;28;20036;-89
2024/01/07 08:29:28;;;;;;;22.27;13.43;;;2.10;99.90;;;;;;5030881;28;20490;-88
2024/01/07 08:31:54;;;;;;;19.63;13.30;;;2.10;99.90;;;;;;5009335;28;20071;-89
2024/01/07 08:34:20;;;;;;;18.30;12.63;;;2.10;99.90;;;;;;5025499;28;20095;-90
2024/01/07 08:36:45;;;;;;;20.90;12.10;;;2.00;99.90;;;;;;5025675;28;20028;-89
2024/01/07 08:39:14;;;;;;;17.27;11.47;;;2.00;99.90;;;;;;5025976;28;20033;-89
2024/01/07 08:41:40;;;;;;;19.00;11.63;;;2.00;99.90;;;;;;5043588;28;20076;-90
2024/01/07 08:44:08;;;;;;;16.53;10.90;;;1.90;99.90;;;;;;5009731;28;20473;-90
2024/01/07 08:46:34;;;;;;;17.30;11.17;;;1.90;99.90;;;;;;5025826;28;20182;-89
2024/01/07 08:48:59;;;;;;;15.90;10.60;;;1.90;99.90;;;;;;5025813;28;20113;-90
2024/01/07 08:51:25;;;;;;;14.93;10.17;;;1.90;99.90;;;;;;5024990;28;20417;-89
2024/01/07 08:53:51;;;;;;;14.60;9.40;;;1.90;99.90;;;;;;5025639;28;20033;-90
2024/01/07 08:56:16;;;;;;;15.77;10.20;;;1.90;99.90;;;;;;5025540;28;20036;-90
2024/01/07 08:58:42;;;;;;;17.67;11.17;;;2.00;99.90;;;;;;5025915;28;20029;-90
2024/01/07 09:01:08;;;;;;;17.00;10.93;;;2.00;99.90;;;;;;5026068;28;20160;-92
2024/01/07 09:03:34;;;;;;;18.70;11.50;;;2.00;99.90;;;;;;5025834;28;20056;-90
2024/01/07 09:05:59;;;;;;;16.73;11.07;;;2.00;99.90;;;;;;5025513;28;20037;-90
2024/01/07 09:08:25;;;;;;;17.20;12.20;;;2.00;99.90;;;;;;5025392;28;20071;-90
2024/01/07 09:10:51;;;;;;;20.00;11.77;;;2.00;99.90;;;;;;5025664;28;20018;-90
2024/01/07 09:13:16;;;;;;;19.70;11.97;;;2.00;99.90;;;;;;5025874;28;20037;-90
2024/01/07 09:15:42;;;;;;;18.30;11.80;;;2.00;99.90;;;;;;5025374;28;20033;-91
2024/01/07 09:18:08;;;;;;;18.80;11.93;;;2.00;99.90;;;;;;5025599;28;20034;-91
2024/01/07 09:20:33;;;;;;;19.13;11.87;;;2.00;99.90;;;;;;5025710;28;20022;-90
2024/01/07 09:22:59;;;;;;;17.10;11.60;;;2.00;99.90;;;;;;5025484;28;20056;-90
2024/01/07 09:25:26;;;;;;;17.70;11.10;;;2.00;99.90;;;;;;5024915;28;20046;-89
2024/01/07 09:27:52;;;;;;;18.40;11.33;;;2.00;99.90;;;;;;5043106;28;20430;-91
2024/01/07 09:30:17;;;;;;;18.47;10.20;;;2.00;99.90;;;;;;5025267;28;20022;-91
2024/01/07 09:32:43;;;;;;;17.40;10.30;;;1.90;99.90;;;;;;5025077;28;20532;-91
2024/01/07 09:35:09;;;;;;;17.83;11.00;;;2.00;99.90;;;;;;5024790;28;20009;-85
2024/01/07 09:37:35;;;;;;;18.70;11.77;;;2.00;99.90;;;;;;5025028;28;20029;-86
2024/01/07 09:40:02;;;;;;;17.77;11.30;;;2.00;99.90;;;;;;5024391;28;20017;-86
2024/01/07 09:42:27;;;;;;;17.27;9.73;;;2.00;99.90;;;;;;5024741;28;20021;-85
2024/01/07 09:44:53;;;;;;;18.63;10.37;;;2.10;99.90;;;;;;5024934;28;20098;-85
2024/01/07 09:47:20;;;;;;;16.17;10.00;;;2.00;99.90;;;;;;5027437;28;20021;-85
2024/01/07 09:49:46;;;;;;;18.80;10.87;;;2.10;99.90;;;;;;5028385;28;20024;-85
2024/01/07 09:52:12;;;;;;;17.40;10.20;;;2.10;99.90;;;;;;5028085;28;20086;-86
2024/01/07 09:54:39;;;;;;;17.27;10.20;;;2.20;99.90;;;;;;5028884;28;20022;-85
2024/01/07 09:57:07;;;;;;;15.40;9.63;;;2.20;99.90;;;;;;5033433;28;20021;-86
2024/01/07 09:59:33;;;;;;;15.67;10.17;;;2.30;99.90;;;;;;5048460;28;20025;-86
2024/01/07 10:01:59;;;;;;;15.87;9.50;;;2.20;99.90;;;;;;5047526;28;20029;-86
2024/01/07 10:04:25;;;;;;;17.53;10.50;;;2.30;99.90;;;;;;5047756;28;20017;-86
2024/01/07 10:06:53;;;;;;;15.77;9.00;;;2.30;99.90;;;;;;5046187;28;20017;-85
2024/01/07 10:09:21;;;;;;;15.13;8.37;;;2.30;99.90;;;;;;5036668;28;20547;-85
2024/01/07 10:11:47;;;;;;;15.03;8.97;;;2.30;99.90;;;;;;5048052;28;20029;-85
2024/01/07 10:14:13;;;;;;;15.53;7.93;;;2.30;99.90;;;;;;5047670;28;20052;-85
2024/01/07 10:16:39;;;;;;;18.33;8.57;;;2.20;99.90;;;;;;5065823;28;20056;-85
2024/01/07 10:19:07;;;;;;;14.33;8.30;;;2.30;99.90;;;;;;5047853;28;20021;-87
2024/01/07 10:21:33;;;;;;;14.53;8.43;;;2.30;99.90;;;;;;5048008;28;20036;-84
2024/01/07 10:24:12;;;;;;;14.03;7.43;;;2.30;99.80;;;;;;5047465;28;20048;-86
2024/01/07 10:26:39;;;;;;;13.57;6.90;;;2.30;99.60;;;;;;5047737;28;20017;-87
2024/01/07 10:29:05;;;;;;;12.13;7.17;;;2.30;99.70;;;;;;5048281;28;20437;-92
2024/01/07 10:31:34;;;;;;;11.20;6.87;;;2.30;99.10;;;;;;5047807;28;20468;-91
2024/01/07 10:34:00;;;;;;;12.10;6.43;;;2.30;99.10;;;;;;5048007;28;20049;-90
2024/01/07 10:36:26;;;;;;;10.37;6.47;;;2.30;98.70;;;;;;5048251;28;20031;-91
2024/01/07 10:38:52;;;;;;;10.67;6.03;;;2.40;98.70;;;;;;5065775;28;20025;-91
2024/01/07 10:41:21;;;;;;;12.40;6.37;;;2.40;98.80;;;;;;5048277;28;20017;-91
2024/01/07 10:43:48;;;;;;;10.87;5.70;;;2.60;99.50;;;;;;5048089;28;20013;-90
2024/01/07 10:46:15;;;;;;;9.57;5.23;;;2.70;99.60;;;;;;5048177;28;20051;-90
2024/01/07 10:49:04;;;;;;;9.37;4.63;;;2.80;99.80;;;;;;5047973;28;20029;-90
2024/01/07 10:51:33;;;;;;;7.67;4.90;;;3.10;99.90;;;;;;5047572;28;20029;-92
2024/01/07 10:53:59;;;;;;;8.07;4.93;;;3.20;99.00;;;;;;5047558;28;20511;-91
2024/01/07 10:56:39;;;;;;;7.57;4.50;;;3.30;98.50;;;;;;5065089;28;20040;-92
2024/01/07 10:59:05;;;;;;;10.80;5.37;;;3.50;99.30;;;;;;5048196;28;20037;-91
2024/01/07 11:01:31;;;;;;;7.10;4.63;;;3.70;98.10;;;;;;5047666;28;20092;-91
2024/01/07 11:04:08;;;;;;;8.17;4.00;;;3.80;98.80;;;;;;5047805;28;20335;-92
2024/01/07 11:06:46;;;;;;;7.50;4.20;;;3.90;97.30;;;;;;5047461;28;20021;-92
2024/01/07 11:09:23;;;;;;;10.50;4.50;;;3.90;96.50;;;;;;5047708;28;20025;-92
2024/01/07 11:11:50;;;;;;;6.93;4.10;;;3.80;95.20;;;;;;5047863;28;20021;-92
2024/01/07 11:14:39;;;;;;;7.07;4.03;;;3.80;95.20;;;;;;5065038;28;20036;-91
2024/01/07 11:17:08;;;;;;;9.63;4.47;;;3.80;94.80;;;;;;5065661;28;20085;-91
2024/01/07 11:19:39;;;;;;;9.97;4.17;;;3.60;94.50;;;;;;5047156;28;20548;-90
2024/01/07 11:22:24;;;;;;;8.73;4.30;;;3.60;94.70;;;;;;5031216;28;20032;-90
2024/01/07 11:24:57;;;;;;;7.10;3.43;;;3.60;94.80;;;;;;5047339;28;20049;-93
2024/01/07 11:27:24;;;;;;;10.07;5.10;;;3.60;94.40;;;;;;5047232;28;20025;-92
2024/01/07 11:30:06;;;;;;;6.73;3.93;;;3.60;93.50;;;;;;5047261;28;20028;-92
2024/01/07 11:32:34;;;;;;;6.47;3.43;;;3.70;94.60;;;;;;5046897;28;20040;-91
2024/01/07 11:35:01;;;;;;;6.03;3.23;;;4.00;95.10;;;;;;5047040;28;20059;-92
2024/01/07 11:37:26;;;;;;;6.60;2.80;;;4.20;95.60;;;;;;5047392;28;20393;-93
2024/01/07 11:39:59;;;;;;;4.63;2.50;;;4.50;96.30;;;;;;5047114;28;20021;-92
2024/01/07 11:42:25;;;;;;;6.53;2.77;;;4.80;96.30;;;;;;5047450;28;20029;-92
2024/01/07 11:44:55;;;;;;;5.33;2.70;;;5.20;95.80;;;;;;5046078;28;20490;-93
2024/01/07 11:47:23;;;;;;;5.03;2.60;;;5.50;95.30;;;;;;5049378;28;20017;-92
2024/01/07 11:49:49;;;;;;;6.50;2.70;;;5.90;95.10;;;;;;5021335;28;20548;-93
2024/01/07 11:52:15;;;;;;;5.83;2.20;;;6.20;95.40;;;;;;5049210;28;20021;-92
2024/01/07 11:54:41;;;;;;;5.53;2.03;;;6.50;94.20;;;;;;5050782;28;20036;-94
2024/01/07 11:57:07;;;;;;;4.73;2.00;;;6.70;92.40;;;;;;5049992;28;20021;-93
2024/01/07 11:59:34;;;;;;;4.47;1.50;;;6.90;91.40;;;;;;5048065;28;20021;-93
2024/01/07 12:02:00;;;;;;;5.67;2.10;;;6.90;89.90;;;;;;5064064;28;20035;-93
2024/01/07 12:04:26;;;;;;;3.53;1.60;;;6.90;89.10;;;;;;5046607;28;20021;-92
2024/01/07 12:06:52;;;;;;;3.20;1.40;;;7.20;90.90;;;;;;5046526;28;20024;-92
2024/01/07 12:09:18;;;;;;;4.10;1.50;;;7.60;90.20;;;;;;5045983;28;20384;-94
2024/01/07 12:11:44;;;;;;;2.63;0.98;;;8.00;90.50;;;;;;5046720;28;20021;-94
2024/01/07 12:14:11;;;;;;;2.78;0.90;;;8.40;90.50;;;;;;5045856;28;20025;-94
2024/01/07 12:16:37;;;;;;;2.60;0.80;;;8.70;88.90;;;;;;5047110;28;20120;-93
2024/01/07 12:19:03;;;;;;;2.78;0.65;;;9.00;86.80;;;;;;5045751;28;20025;-94
2024/01/07 12:21:29;;;;;;;1.33;0.55;;;9.40;87.70;;;;;;5046773;28;20036;-94
2024/01/07 12:23:56;;;;;;;3.53;0.63;;;9.90;88.90;;;;;;5048690;28;20044;-95
2024/01/07 12:26:26;;;;;;;3.38;0.70;;;10.40;86.50;;;;;;5047548;28;20036;-93
2024/01/07 12:28:54;;;;;;;3.55;0.70;;;10.90;84.60;;;;;;5046322;28;20089;-93
2024/01/07 12:31:21;;;;;;;2.38;0.60;;;11.40;83.10;;;;;;5045708;28;20037;-94
2024/01/07 12:33:47;;;;;;;2.85;0.70;;;11.90;85.30;;;;;;5046370;28;20538;-95
2024/01/07 12:36:14;;;;;;;3.05;0.60;;;12.60;85.40;;;;;;5045824;28;20029;-95